sensor_id;sensor_type;location;lat;lon;timestamp;P1;durP1;ratioP1;P2;durP2;ratioP2
46723;SDS011;32463;48.298;11.620;2023-05-14T00:01:15;14.60;;;11.43;;
46723;SDS011;32463;48.298;11.620;2023-05-14T00:03:41;15.07;;;10.82;;
46723;SDS011;32463;48.298;11.620;2023-05-14T00:06:08;13.63;;;10.60;;
46723;SDS011;32463;48.298;11.620;2023-05-14T00:08:35;14.55;;;10.82;;
46723;SDS011;32463;48.298;11.620;2023-05-14T00:11:01;15.70;;;10.82;;
46723;SDS011;32463;48.298;11.620;2023-05-14T00:13:28;15.55;;;11.10;;
46723;SDS011;32463;48.298;11.620;2023-05-14T00:15:54;14.93;;;10.82;;
46723;SDS011;32463;48.298;11.620;2023-05-14T00:18:21;15.23;;;10.68;;
46723;SDS011;32463;48.298;11.620;2023-05-14T00:20:47;16.52;;;10.77;;
46723;SDS011;32463;48.298;11.620;2023-05-14T00:23:18;14.10;;;10.85;;
46723;SDS011;32463;48.298;11.620;2023-05-14T00:25:45;15.90;;;10.63;;
46723;SDS011;32463;48.298;11.620;2023-05-14T00:28:11;17.83;;;10.70;;
46723;SDS011;32463;48.298;11.620;2023-05-14T00:30:38;13.45;;;10.55;;
46723;SDS011;32463;48.298;11.620;2023-05-14T00:33:05;13.63;;;10.38;;
46723;SDS011;32463;48.298;11.620;2023-05-14T00:35:31;14.73;;;10.77;;
46723;SDS011;32463;48.298;11.620;2023-05-14T00:37:59;15.45;;;11.43;;
46723;SDS011;32463;48.298;11.620;2023-05-14T00:40:27;15.50;;;10.63;;
46723;SDS011;32463;48.298;11.620;2023-05-14T00:42:54;15.48;;;11.27;;
46723;SDS011;32463;48.298;11.620;2023-05-14T00:45:21;14.73;;;11.07;;
46723;SDS011;32463;48.298;11.620;2023-05-14T00:47:48;16.52;;;12.02;;
46723;SDS011;32463;48.298;11.620;2023-05-14T00:50:15;16.75;;;11.75;;
46723;SDS011;32463;48.298;11.620;2023-05-14T00:52:42;18.70;;;12.27;;
46723;SDS011;32463;48.298;11.620;2023-05-14T00:55:09;20.02;;;13.18;;
46723;SDS011;32463;48.298;11.620;2023-05-14T00:57:40;17.30;;;11.23;;
46723;SDS011;32463;48.298;11.620;2023-05-14T01:00:07;16.15;;;11.15;;
46723;SDS011;32463;48.298;11.620;2023-05-14T01:02:34;17.73;;;11.43;;
46723;SDS011;32463;48.298;11.620;2023-05-14T01:05:00;18.90;;;12.52;;
46723;SDS011;32463;48.298;11.620;2023-05-14T01:15:32;16.90;;;12.35;;
46723;SDS011;32463;48.298;11.620;2023-05-14T01:18:07;18.17;;;13.00;;
46723;SDS011;32463;48.298;11.620;2023-05-14T01:20:35;17.08;;;12.07;;
46723;SDS011;32463;48.298;11.620;2023-05-14T01:23:02;18.55;;;13.15;;
46723;SDS011;32463;48.298;11.620;2023-05-14T01:25:29;20.23;;;12.98;;
46723;SDS011;32463;48.298;11.620;2023-05-14T01:27:58;17.85;;;13.25;;
46723;SDS011;32463;48.298;11.620;2023-05-14T01:30:35;18.08;;;12.63;;
46723;SDS011;32463;48.298;11.620;2023-05-14T01:33:13;16.73;;;11.75;;
46723;SDS011;32463;48.298;11.620;2023-05-14T01:35:42;18.60;;;12.05;;
46723;SDS011;32463;48.298;11.620;2023-05-14T01:38:10;15.65;;;11.13;;
46723;SDS011;32463;48.298;11.620;2023-05-14T01:40:38;18.35;;;11.15;;
46723;SDS011;32463;48.298;11.620;2023-05-14T01:43:06;14.95;;;10.70;;
46723;SDS011;32463;48.298;11.620;2023-05-14T01:45:36;16.58;;;11.23;;
46723;SDS011;32463;48.298;11.620;2023-05-14T01:48:03;15.38;;;10.88;;
46723;SDS011;32463;48.298;11.620;2023-05-14T01:50:30;15.85;;;10.85;;
46723;SDS011;32463;48.298;11.620;2023-05-14T01:52:57;16.30;;;11.50;;
46723;SDS011;32463;48.298;11.620;2023-05-14T01:55:24;16.08;;;11.10;;
46723;SDS011;32463;48.298;11.620;2023-05-14T01:57:51;14.68;;;10.52;;
46723;SDS011;32463;48.298;11.620;2023-05-14T02:00:18;14.88;;;10.63;;
46723;SDS011;32463;48.298;11.620;2023-05-14T02:02:45;15.50;;;11.07;;
46723;SDS011;32463;48.298;11.620;2023-05-14T02:05:11;16.63;;;11.77;;
46723;SDS011;32463;48.298;11.620;2023-05-14T02:07:38;15.75;;;10.55;;
46723;SDS011;32463;48.298;11.620;2023-05-14T02:10:05;17.77;;;11.27;;
46723;SDS011;32463;48.298;11.620;2023-05-14T02:12:32;15.77;;;10.68;;
46723;SDS011;32463;48.298;11.620;2023-05-14T02:14:58;13.63;;;10.48;;
46723;SDS011;32463;48.298;11.620;2023-05-14T02:17:25;15.55;;;10.75;;
46723;SDS011;32463;48.298;11.620;2023-05-14T02:19:52;14.90;;;11.07;;
46723;SDS011;32463;48.298;11.620;2023-05-14T02:22:18;16.75;;;10.73;;
46723;SDS011;32463;48.298;11.620;2023-05-14T02:24:45;15.50;;;10.73;;
46723;SDS011;32463;48.298;11.620;2023-05-14T02:27:13;16.08;;;10.73;;
46723;SDS011;32463;48.298;11.620;2023-05-14T02:29:40;16.50;;;11.27;;
46723;SDS011;32463;48.298;11.620;2023-05-14T02:32:06;16.67;;;10.88;;
46723;SDS011;32463;48.298;11.620;2023-05-14T02:34:33;14.30;;;10.43;;
46723;SDS011;32463;48.298;11.620;2023-05-14T02:36:59;14.88;;;10.25;;
46723;SDS011;32463;48.298;11.620;2023-05-14T02:39:26;15.07;;;11.43;;
46723;SDS011;32463;48.298;11.620;2023-05-14T02:41:52;15.93;;;11.00;;
46723;SDS011;32463;48.298;11.620;2023-05-14T02:44:19;20.75;;;11.70;;
46723;SDS011;32463;48.298;11.620;2023-05-14T02:46:46;14.73;;;11.27;;
46723;SDS011;32463;48.298;11.620;2023-05-14T02:49:12;15.38;;;10.68;;
46723;SDS011;32463;48.298;11.620;2023-05-14T02:51:39;14.98;;;11.10;;
46723;SDS011;32463;48.298;11.620;2023-05-14T02:54:06;18.90;;;11.35;;
46723;SDS011;32463;48.298;11.620;2023-05-14T02:56:32;14.40;;;10.50;;
46723;SDS011;32463;48.298;11.620;2023-05-14T02:58:59;15.85;;;10.98;;
46723;SDS011;32463;48.298;11.620;2023-05-14T03:01:25;14.18;;;10.70;;
46723;SDS011;32463;48.298;11.620;2023-05-14T03:03:52;14.68;;;10.48;;
46723;SDS011;32463;48.298;11.620;2023-05-14T03:06:18;14.82;;;10.10;;
46723;SDS011;32463;48.298;11.620;2023-05-14T03:08:44;16.38;;;10.07;;
46723;SDS011;32463;48.298;11.620;2023-05-14T03:11:11;17.45;;;10.48;;
46723;SDS011;32463;48.298;11.620;2023-05-14T03:13:37;15.85;;;10.88;;
46723;SDS011;32463;48.298;11.620;2023-05-14T03:16:04;16.58;;;10.88;;
46723;SDS011;32463;48.298;11.620;2023-05-14T03:18:30;15.98;;;11.18;;
46723;SDS011;32463;48.298;11.620;2023-05-14T03:20:58;16.52;;;11.25;;
46723;SDS011;32463;48.298;11.620;2023-05-14T03:23:25;17.08;;;11.80;;
46723;SDS011;32463;48.298;11.620;2023-05-14T03:25:51;18.27;;;11.27;;
46723;SDS011;32463;48.298;11.620;2023-05-14T03:28:18;15.15;;;10.90;;
46723;SDS011;32463;48.298;11.620;2023-05-14T03:30:44;17.38;;;11.63;;
46723;SDS011;32463;48.298;11.620;2023-05-14T03:33:11;14.70;;;11.10;;
46723;SDS011;32463;48.298;11.620;2023-05-14T03:35:38;17.45;;;11.70;;
46723;SDS011;32463;48.298;11.620;2023-05-14T03:38:08;18.58;;;12.88;;
46723;SDS011;32463;48.298;11.620;2023-05-14T03:40:35;17.73;;;11.52;;
46723;SDS011;32463;48.298;11.620;2023-05-14T03:43:01;16.17;;;11.52;;
46723;SDS011;32463;48.298;11.620;2023-05-14T03:45:28;16.95;;;11.77;;
46723;SDS011;32463;48.298;11.620;2023-05-14T03:47:54;19.63;;;11.85;;
46723;SDS011;32463;48.298;11.620;2023-05-14T03:50:21;17.55;;;11.70;;
46723;SDS011;32463;48.298;11.620;2023-05-14T03:52:49;18.50;;;12.20;;
46723;SDS011;32463;48.298;11.620;2023-05-14T03:55:19;20.95;;;12.57;;
46723;SDS011;32463;48.298;11.620;2023-05-14T03:57:46;18.20;;;12.80;;
46723;SDS011;32463;48.298;11.620;2023-05-14T04:00:14;20.83;;;12.57;;
46723;SDS011;32463;48.298;11.620;2023-05-14T04:02:41;19.80;;;12.45;;
46723;SDS011;32463;48.298;11.620;2023-05-14T04:05:07;18.67;;;12.80;;
46723;SDS011;32463;48.298;11.620;2023-05-14T04:07:34;24.33;;;15.00;;
46723;SDS011;32463;48.298;11.620;2023-05-14T04:10:01;22.83;;;14.43;;
46723;SDS011;32463;48.298;11.620;2023-05-14T04:12:28;22.80;;;15.65;;
46723;SDS011;32463;48.298;11.620;2023-05-14T04:14:55;19.98;;;13.38;;
46723;SDS011;32463;48.298;11.620;2023-05-14T04:17:23;19.45;;;12.65;;
46723;SDS011;32463;48.298;11.620;2023-05-14T04:19:50;20.00;;;13.10;;
46723;SDS011;32463;48.298;11.620;2023-05-14T04:22:17;20.60;;;12.57;;
46723;SDS011;32463;48.298;11.620;2023-05-14T04:24:43;20.40;;;12.95;;
46723;SDS011;32463;48.298;11.620;2023-05-14T04:27:10;20.27;;;12.95;;
46723;SDS011;32463;48.298;11.620;2023-05-14T04:29:39;19.92;;;12.63;;
46723;SDS011;32463;48.298;11.620;2023-05-14T04:32:06;18.65;;;13.05;;
46723;SDS011;32463;48.298;11.620;2023-05-14T04:34:33;19.50;;;13.77;;
46723;SDS011;32463;48.298;11.620;2023-05-14T04:37:00;22.95;;;12.55;;
46723;SDS011;32463;48.298;11.620;2023-05-14T04:39:27;26.35;;;13.13;;
46723;SDS011;32463;48.298;11.620;2023-05-14T04:41:54;19.77;;;12.90;;
46723;SDS011;32463;48.298;11.620;2023-05-14T04:44:20;22.63;;;13.65;;
46723;SDS011;32463;48.298;11.620;2023-05-14T04:46:47;21.75;;;13.20;;
46723;SDS011;32463;48.298;11.620;2023-05-14T04:49:13;25.38;;;13.23;;
46723;SDS011;32463;48.298;11.620;2023-05-14T04:51:41;22.55;;;13.88;;
46723;SDS011;32463;48.298;11.620;2023-05-14T04:54:07;26.58;;;13.73;;
46723;SDS011;32463;48.298;11.620;2023-05-14T04:56:34;19.52;;;14.25;;
46723;SDS011;32463;48.298;11.620;2023-05-14T04:59:00;21.55;;;14.93;;
46723;SDS011;32463;48.298;11.620;2023-05-14T05:01:26;21.48;;;13.88;;
46723;SDS011;32463;48.298;11.620;2023-05-14T05:03:53;22.77;;;14.38;;
46723;SDS011;32463;48.298;11.620;2023-05-14T05:06:19;26.55;;;15.75;;
46723;SDS011;32463;48.298;11.620;2023-05-14T05:08:46;21.95;;;14.70;;
46723;SDS011;32463;48.298;11.620;2023-05-14T05:11:12;26.63;;;14.48;;
46723;SDS011;32463;48.298;11.620;2023-05-14T05:13:39;22.75;;;15.43;;
46723;SDS011;32463;48.298;11.620;2023-05-14T05:16:05;22.23;;;16.13;;
46723;SDS011;32463;48.298;11.620;2023-05-14T05:18:32;23.13;;;15.27;;
46723;SDS011;32463;48.298;11.620;2023-05-14T05:20:58;25.02;;;15.90;;
46723;SDS011;32463;48.298;11.620;2023-05-14T05:23:25;21.90;;;15.23;;
46723;SDS011;32463;48.298;11.620;2023-05-14T05:25:51;26.50;;;15.65;;
46723;SDS011;32463;48.298;11.620;2023-05-14T05:28:18;22.20;;;14.32;;
46723;SDS011;32463;48.298;11.620;2023-05-14T05:30:44;20.63;;;14.98;;
46723;SDS011;32463;48.298;11.620;2023-05-14T05:33:11;24.23;;;15.25;;
46723;SDS011;32463;48.298;11.620;2023-05-14T05:35:38;26.23;;;15.80;;
46723;SDS011;32463;48.298;11.620;2023-05-14T05:38:04;23.63;;;16.23;;
46723;SDS011;32463;48.298;11.620;2023-05-14T05:40:31;26.92;;;15.43;;
46723;SDS011;32463;48.298;11.620;2023-05-14T05:42:57;23.75;;;15.38;;
46723;SDS011;32463;48.298;11.620;2023-05-14T05:45:24;24.65;;;15.82;;
46723;SDS011;32463;48.298;11.620;2023-05-14T05:47:50;23.45;;;15.52;;
46723;SDS011;32463;48.298;11.620;2023-05-14T05:50:17;24.95;;;15.15;;
46723;SDS011;32463;48.298;11.620;2023-05-14T05:52:43;25.33;;;15.85;;
46723;SDS011;32463;48.298;11.620;2023-05-14T05:55:09;27.65;;;15.00;;
46723;SDS011;32463;48.298;11.620;2023-05-14T05:57:36;23.58;;;15.10;;
46723;SDS011;32463;48.298;11.620;2023-05-14T06:00:03;25.63;;;15.55;;
46723;SDS011;32463;48.298;11.620;2023-05-14T06:02:38;23.60;;;15.27;;
46723;SDS011;32463;48.298;11.620;2023-05-14T06:05:05;25.15;;;15.32;;
46723;SDS011;32463;48.298;11.620;2023-05-14T06:07:32;27.65;;;15.48;;
46723;SDS011;32463;48.298;11.620;2023-05-14T06:09:59;22.00;;;14.35;;
46723;SDS011;32463;48.298;11.620;2023-05-14T06:12:27;26.75;;;16.42;;
46723;SDS011;32463;48.298;11.620;2023-05-14T06:14:53;24.55;;;15.15;;
46723;SDS011;32463;48.298;11.620;2023-05-14T06:17:22;24.60;;;15.38;;
46723;SDS011;32463;48.298;11.620;2023-05-14T06:19:49;22.67;;;14.20;;
46723;SDS011;32463;48.298;11.620;2023-05-14T06:22:16;22.67;;;14.55;;
46723;SDS011;32463;48.298;11.620;2023-05-14T06:24:43;27.52;;;17.35;;
46723;SDS011;32463;48.298;11.620;2023-05-14T06:27:10;25.63;;;15.20;;
46723;SDS011;32463;48.298;11.620;2023-05-14T06:29:36;21.00;;;13.85;;
46723;SDS011;32463;48.298;11.620;2023-05-14T06:32:03;22.52;;;13.60;;
46723;SDS011;32463;48.298;11.620;2023-05-14T06:34:30;21.65;;;13.80;;
46723;SDS011;32463;48.298;11.620;2023-05-14T06:36:57;23.30;;;14.23;;
46723;SDS011;32463;48.298;11.620;2023-05-14T06:39:24;20.98;;;14.25;;
46723;SDS011;32463;48.298;11.620;2023-05-14T06:41:50;22.45;;;13.98;;
46723;SDS011;32463;48.298;11.620;2023-05-14T06:44:17;23.42;;;14.18;;
46723;SDS011;32463;48.298;11.620;2023-05-14T06:46:44;21.35;;;12.98;;
46723;SDS011;32463;48.298;11.620;2023-05-14T06:49:10;20.48;;;13.63;;
46723;SDS011;32463;48.298;11.620;2023-05-14T06:51:37;22.65;;;13.95;;
46723;SDS011;32463;48.298;11.620;2023-05-14T06:54:04;21.45;;;13.60;;
46723;SDS011;32463;48.298;11.620;2023-05-14T06:56:31;21.95;;;13.90;;
46723;SDS011;32463;48.298;11.620;2023-05-14T06:58:57;21.90;;;13.65;;
46723;SDS011;32463;48.298;11.620;2023-05-14T07:01:24;20.50;;;13.05;;
46723;SDS011;32463;48.298;11.620;2023-05-14T07:03:50;21.65;;;13.77;;
46723;SDS011;32463;48.298;11.620;2023-05-14T07:06:17;19.83;;;12.90;;
46723;SDS011;32463;48.298;11.620;2023-05-14T07:08:43;19.90;;;13.18;;
46723;SDS011;32463;48.298;11.620;2023-05-14T07:11:11;20.25;;;12.43;;
46723;SDS011;32463;48.298;11.620;2023-05-14T07:13:38;20.50;;;12.93;;
46723;SDS011;32463;48.298;11.620;2023-05-14T07:16:06;17.63;;;11.73;;
46723;SDS011;32463;48.298;11.620;2023-05-14T07:18:33;20.25;;;12.73;;
46723;SDS011;32463;48.298;11.620;2023-05-14T07:21:00;22.02;;;12.40;;
46723;SDS011;32463;48.298;11.620;2023-05-14T07:23:26;21.25;;;12.90;;
46723;SDS011;32463;48.298;11.620;2023-05-14T07:25:53;16.80;;;11.27;;
46723;SDS011;32463;48.298;11.620;2023-05-14T07:28:19;17.85;;;11.60;;
46723;SDS011;32463;48.298;11.620;2023-05-14T07:30:46;20.02;;;11.13;;
46723;SDS011;32463;48.298;11.620;2023-05-14T07:33:12;16.08;;;10.93;;
46723;SDS011;32463;48.298;11.620;2023-05-14T07:35:39;20.58;;;11.88;;
46723;SDS011;32463;48.298;11.620;2023-05-14T07:38:06;18.70;;;12.35;;
46723;SDS011;32463;48.298;11.620;2023-05-14T07:40:32;18.35;;;12.13;;
46723;SDS011;32463;48.298;11.620;2023-05-14T07:42:59;19.10;;;12.98;;
46723;SDS011;32463;48.298;11.620;2023-05-14T07:45:25;20.33;;;13.50;;
46723;SDS011;32463;48.298;11.620;2023-05-14T07:47:52;19.33;;;14.07;;
46723;SDS011;32463;48.298;11.620;2023-05-14T07:50:18;18.98;;;14.00;;
46723;SDS011;32463;48.298;11.620;2023-05-14T07:52:45;20.75;;;14.23;;
46723;SDS011;32463;48.298;11.620;2023-05-14T07:55:11;20.58;;;14.05;;
46723;SDS011;32463;48.298;11.620;2023-05-14T07:57:38;20.98;;;14.30;;
46723;SDS011;32463;48.298;11.620;2023-05-14T08:00:05;20.23;;;14.25;;
46723;SDS011;32463;48.298;11.620;2023-05-14T08:02:32;19.05;;;12.98;;
46723;SDS011;32463;48.298;11.620;2023-05-14T08:04:59;20.27;;;13.27;;
46723;SDS011;32463;48.298;11.620;2023-05-14T08:07:25;19.83;;;13.10;;
46723;SDS011;32463;48.298;11.620;2023-05-14T08:09:54;17.85;;;12.40;;
46723;SDS011;32463;48.298;11.620;2023-05-14T08:12:20;17.58;;;12.63;;
46723;SDS011;32463;48.298;11.620;2023-05-14T08:14:47;19.52;;;11.48;;
46723;SDS011;32463;48.298;11.620;2023-05-14T08:17:13;17.27;;;10.10;;
46723;SDS011;32463;48.298;11.620;2023-05-14T08:19:40;14.55;;;9.77;;
46723;SDS011;32463;48.298;11.620;2023-05-14T08:22:06;16.73;;;10.30;;
46723;SDS011;32463;48.298;11.620;2023-05-14T08:24:33;14.73;;;10.45;;
46723;SDS011;32463;48.298;11.620;2023-05-14T08:26:59;16.67;;;10.20;;
46723;SDS011;32463;48.298;11.620;2023-05-14T08:29:26;14.80;;;9.95;;
46723;SDS011;32463;48.298;11.620;2023-05-14T08:31:52;12.80;;;8.80;;
46723;SDS011;32463;48.298;11.620;2023-05-14T08:34:19;20.58;;;14.10;;
46723;SDS011;32463;48.298;11.620;2023-05-14T08:36:46;17.08;;;10.40;;
46723;SDS011;32463;48.298;11.620;2023-05-14T08:39:12;15.50;;;9.02;;
46723;SDS011;32463;48.298;11.620;2023-05-14T08:41:39;13.65;;;9.30;;
46723;SDS011;32463;48.298;11.620;2023-05-14T08:44:12;12.95;;;8.75;;
46723;SDS011;32463;48.298;11.620;2023-05-14T08:46:40;16.65;;;8.98;;
46723;SDS011;32463;48.298;11.620;2023-05-14T08:51:39;10.93;;;8.25;;
46723;SDS011;32463;48.298;11.620;2023-05-14T08:54:05;11.25;;;8.27;;
46723;SDS011;32463;48.298;11.620;2023-05-14T08:56:32;11.07;;;8.07;;
46723;SDS011;32463;48.298;11.620;2023-05-14T08:58:59;14.35;;;7.88;;
46723;SDS011;32463;48.298;11.620;2023-05-14T09:01:25;10.23;;;7.40;;
46723;SDS011;32463;48.298;11.620;2023-05-14T09:03:53;11.43;;;7.57;;
46723;SDS011;32463;48.298;11.620;2023-05-14T09:06:19;12.02;;;6.68;;
46723;SDS011;32463;48.298;11.620;2023-05-14T09:08:46;9.73;;;7.63;;
46723;SDS011;32463;48.298;11.620;2023-05-14T09:11:13;11.02;;;7.28;;
46723;SDS011;32463;48.298;11.620;2023-05-14T09:13:39;10.73;;;7.20;;
46723;SDS011;32463;48.298;11.620;2023-05-14T09:16:06;8.75;;;6.15;;
46723;SDS011;32463;48.298;11.620;2023-05-14T09:18:34;11.48;;;7.43;;
46723;SDS011;32463;48.298;11.620;2023-05-14T09:21:01;9.95;;;7.57;;
46723;SDS011;32463;48.298;11.620;2023-05-14T09:23:30;8.73;;;6.70;;
46723;SDS011;32463;48.298;11.620;2023-05-14T09:25:59;10.65;;;7.18;;
46723;SDS011;32463;48.298;11.620;2023-05-14T09:28:29;9.85;;;6.95;;
46723;SDS011;32463;48.298;11.620;2023-05-14T09:30:56;9.77;;;7.28;;
46723;SDS011;32463;48.298;11.620;2023-05-14T09:33:26;8.73;;;7.20;;
46723;SDS011;32463;48.298;11.620;2023-05-14T09:35:57;9.50;;;7.00;;
46723;SDS011;32463;48.298;11.620;2023-05-14T09:38:28;9.48;;;7.20;;
46723;SDS011;32463;48.298;11.620;2023-05-14T09:40:56;10.02;;;7.22;;
46723;SDS011;32463;48.298;11.620;2023-05-14T09:43:23;9.70;;;7.18;;
46723;SDS011;32463;48.298;11.620;2023-05-14T09:45:50;10.13;;;6.88;;
46723;SDS011;32463;48.298;11.620;2023-05-14T09:48:18;9.98;;;7.00;;
46723;SDS011;32463;48.298;11.620;2023-05-14T09:50:46;8.65;;;6.53;;
46723;SDS011;32463;48.298;11.620;2023-05-14T09:53:13;8.52;;;6.20;;
46723;SDS011;32463;48.298;11.620;2023-05-14T09:55:39;7.95;;;6.03;;
46723;SDS011;32463;48.298;11.620;2023-05-14T09:58:06;8.68;;;6.43;;
46723;SDS011;32463;48.298;11.620;2023-05-14T10:00:33;7.80;;;6.20;;
46723;SDS011;32463;48.298;11.620;2023-05-14T10:03:04;8.80;;;6.85;;
46723;SDS011;32463;48.298;11.620;2023-05-14T10:05:34;11.68;;;6.95;;
46723;SDS011;32463;48.298;11.620;2023-05-14T10:08:15;9.98;;;7.45;;
46723;SDS011;32463;48.298;11.620;2023-05-14T10:10:47;8.00;;;6.63;;
46723;SDS011;32463;48.298;11.620;2023-05-14T10:13:17;9.98;;;7.20;;
46723;SDS011;32463;48.298;11.620;2023-05-14T10:15:47;8.77;;;7.10;;
46723;SDS011;32463;48.298;11.620;2023-05-14T10:18:21;8.57;;;7.00;;
46723;SDS011;32463;48.298;11.620;2023-05-14T10:20:58;9.75;;;7.78;;
46723;SDS011;32463;48.298;11.620;2023-05-14T10:23:30;11.60;;;8.40;;
46723;SDS011;32463;48.298;11.620;2023-05-14T10:25:57;10.18;;;8.35;;
46723;SDS011;32463;48.298;11.620;2023-05-14T10:28:25;11.25;;;8.93;;
46723;SDS011;32463;48.298;11.620;2023-05-14T10:30:53;10.48;;;8.25;;
46723;SDS011;32463;48.298;11.620;2023-05-14T10:33:19;9.63;;;7.80;;
46723;SDS011;32463;48.298;11.620;2023-05-14T10:36:04;9.35;;;7.55;;
46723;SDS011;32463;48.298;11.620;2023-05-14T10:38:35;12.50;;;8.63;;
46723;SDS011;32463;48.298;11.620;2023-05-14T10:41:03;10.48;;;8.10;;
46723;SDS011;32463;48.298;11.620;2023-05-14T10:43:36;10.70;;;7.60;;
46723;SDS011;32463;48.298;11.620;2023-05-14T10:46:03;9.73;;;7.30;;
46723;SDS011;32463;48.298;11.620;2023-05-14T10:48:31;10.55;;;7.93;;
46723;SDS011;32463;48.298;11.620;2023-05-14T10:50:58;9.80;;;7.70;;
46723;SDS011;32463;48.298;11.620;2023-05-14T10:53:32;10.55;;;8.23;;
46723;SDS011;32463;48.298;11.620;2023-05-14T10:56:10;10.48;;;7.50;;
46723;SDS011;32463;48.298;11.620;2023-05-14T10:58:39;9.85;;;7.07;;
46723;SDS011;32463;48.298;11.620;2023-05-14T11:01:08;11.90;;;8.35;;
46723;SDS011;32463;48.298;11.620;2023-05-14T11:03:40;8.68;;;7.70;;
46723;SDS011;32463;48.298;11.620;2023-05-14T11:08:36;10.10;;;7.63;;
46723;SDS011;32463;48.298;11.620;2023-05-14T11:11:03;10.25;;;7.63;;
46723;SDS011;32463;48.298;11.620;2023-05-14T11:13:31;10.00;;;7.80;;
46723;SDS011;32463;48.298;11.620;2023-05-14T11:15:58;9.10;;;7.22;;
46723;SDS011;32463;48.298;11.620;2023-05-14T11:18:30;9.20;;;6.80;;
46723;SDS011;32463;48.298;11.620;2023-05-14T11:21:01;9.50;;;6.13;;
46723;SDS011;32463;48.298;11.620;2023-05-14T11:23:27;8.32;;;5.80;;
46723;SDS011;32463;48.298;11.620;2023-05-14T11:25:54;9.52;;;6.15;;
46723;SDS011;32463;48.298;11.620;2023-05-14T11:28:22;7.55;;;5.90;;
46723;SDS011;32463;48.298;11.620;2023-05-14T11:30:49;7.30;;;5.70;;
46723;SDS011;32463;48.298;11.620;2023-05-14T11:33:18;8.07;;;5.90;;
46723;SDS011;32463;48.298;11.620;2023-05-14T11:35:47;6.90;;;5.40;;
46723;SDS011;32463;48.298;11.620;2023-05-14T11:38:14;7.18;;;5.03;;
46723;SDS011;32463;48.298;11.620;2023-05-14T11:40:42;7.28;;;5.90;;
46723;SDS011;32463;48.298;11.620;2023-05-14T11:43:17;8.13;;;5.25;;
46723;SDS011;32463;48.298;11.620;2023-05-14T11:45:48;7.68;;;6.18;;
46723;SDS011;32463;48.298;11.620;2023-05-14T11:48:18;5.93;;;5.10;;
46723;SDS011;32463;48.298;11.620;2023-05-14T11:50:49;7.53;;;6.13;;
46723;SDS011;32463;48.298;11.620;2023-05-14T11:53:24;7.60;;;6.32;;
46723;SDS011;32463;48.298;11.620;2023-05-14T11:55:52;6.35;;;5.30;;
46723;SDS011;32463;48.298;11.620;2023-05-14T11:58:19;9.90;;;5.70;;
46723;SDS011;32463;48.298;11.620;2023-05-14T12:00:50;7.55;;;4.70;;
46723;SDS011;32463;48.298;11.620;2023-05-14T12:03:20;7.70;;;5.85;;
46723;SDS011;32463;48.298;11.620;2023-05-14T12:05:56;6.65;;;4.97;;
46723;SDS011;32463;48.298;11.620;2023-05-14T12:08:30;5.63;;;4.50;;
46723;SDS011;32463;48.298;11.620;2023-05-14T12:10:58;5.75;;;4.72;;
46723;SDS011;32463;48.298;11.620;2023-05-14T12:13:26;8.43;;;5.00;;
46723;SDS011;32463;48.298;11.620;2023-05-14T12:15:56;4.70;;;4.20;;
46723;SDS011;32463;48.298;11.620;2023-05-14T12:18:25;7.88;;;4.65;;
46723;SDS011;32463;48.298;11.620;2023-05-14T12:20:52;5.65;;;4.80;;
46723;SDS011;32463;48.298;11.620;2023-05-14T12:23:25;6.78;;;5.43;;
46723;SDS011;32463;48.298;11.620;2023-05-14T12:25:53;6.50;;;4.63;;
46723;SDS011;32463;48.298;11.620;2023-05-14T12:28:21;5.65;;;4.88;;
46723;SDS011;32463;48.298;11.620;2023-05-14T12:30:54;5.57;;;4.07;;
46723;SDS011;32463;48.298;11.620;2023-05-14T12:33:21;6.07;;;4.75;;
46723;SDS011;32463;48.298;11.620;2023-05-14T12:35:48;5.93;;;5.10;;
46723;SDS011;32463;48.298;11.620;2023-05-14T12:38:15;4.57;;;3.83;;
46723;SDS011;32463;48.298;11.620;2023-05-14T12:40:41;5.57;;;4.22;;
46723;SDS011;32463;48.298;11.620;2023-05-14T12:43:07;4.60;;;4.10;;
46723;SDS011;32463;48.298;11.620;2023-05-14T12:45:34;6.03;;;4.65;;
46723;SDS011;32463;48.298;11.620;2023-05-14T12:48:00;6.07;;;4.30;;
46723;SDS011;32463;48.298;11.620;2023-05-14T12:50:26;5.13;;;4.40;;
46723;SDS011;32463;48.298;11.620;2023-05-14T12:52:53;6.57;;;4.70;;
46723;SDS011;32463;48.298;11.620;2023-05-14T12:55:20;5.57;;;4.70;;
46723;SDS011;32463;48.298;11.620;2023-05-14T12:57:46;14.98;;;9.63;;
46723;SDS011;32463;48.298;11.620;2023-05-14T13:00:13;22.45;;;16.00;;
46723;SDS011;32463;48.298;11.620;2023-05-14T13:02:40;8.60;;;5.28;;
46723;SDS011;32463;48.298;11.620;2023-05-14T13:05:07;5.55;;;4.80;;
46723;SDS011;32463;48.298;11.620;2023-05-14T13:07:33;6.35;;;4.45;;
46723;SDS011;32463;48.298;11.620;2023-05-14T13:10:00;6.85;;;4.10;;
46723;SDS011;32463;48.298;11.620;2023-05-14T13:12:29;4.90;;;4.28;;
46723;SDS011;32463;48.298;11.620;2023-05-14T13:14:56;4.32;;;3.60;;
46723;SDS011;32463;48.298;11.620;2023-05-14T13:17:22;4.22;;;3.20;;
46723;SDS011;32463;48.298;11.620;2023-05-14T13:19:49;4.40;;;3.78;;
46723;SDS011;32463;48.298;11.620;2023-05-14T13:22:15;4.55;;;3.38;;
46723;SDS011;32463;48.298;11.620;2023-05-14T13:24:42;6.70;;;3.58;;
46723;SDS011;32463;48.298;11.620;2023-05-14T13:27:09;5.68;;;3.50;;
46723;SDS011;32463;48.298;11.620;2023-05-14T13:29:37;4.32;;;3.78;;
46723;SDS011;32463;48.298;11.620;2023-05-14T13:32:03;3.65;;;3.20;;
46723;SDS011;32463;48.298;11.620;2023-05-14T13:34:30;3.80;;;3.25;;
46723;SDS011;32463;48.298;11.620;2023-05-14T13:36:56;4.43;;;3.15;;
46723;SDS011;32463;48.298;11.620;2023-05-14T13:39:23;3.75;;;2.90;;
46723;SDS011;32463;48.298;11.620;2023-05-14T13:41:51;3.42;;;3.00;;
46723;SDS011;32463;48.298;11.620;2023-05-14T13:44:20;7.40;;;3.20;;
46723;SDS011;32463;48.298;11.620;2023-05-14T13:46:47;3.90;;;3.00;;
46723;SDS011;32463;48.298;11.620;2023-05-14T13:49:14;3.65;;;3.10;;
46723;SDS011;32463;48.298;11.620;2023-05-14T13:51:40;4.55;;;3.47;;
46723;SDS011;32463;48.298;11.620;2023-05-14T13:54:07;4.20;;;2.78;;
46723;SDS011;32463;48.298;11.620;2023-05-14T13:56:34;4.30;;;3.13;;
46723;SDS011;32463;48.298;11.620;2023-05-14T13:59:00;4.32;;;2.72;;
46723;SDS011;32463;48.298;11.620;2023-05-14T14:01:27;3.47;;;2.30;;
46723;SDS011;32463;48.298;11.620;2023-05-14T14:03:54;3.75;;;2.67;;
46723;SDS011;32463;48.298;11.620;2023-05-14T14:06:21;4.22;;;3.35;;
46723;SDS011;32463;48.298;11.620;2023-05-14T14:08:47;3.85;;;3.10;;
46723;SDS011;32463;48.298;11.620;2023-05-14T14:11:14;4.07;;;2.88;;
46723;SDS011;32463;48.298;11.620;2023-05-14T14:13:44;3.42;;;2.40;;
46723;SDS011;32463;48.298;11.620;2023-05-14T14:16:10;3.20;;;2.50;;
46723;SDS011;32463;48.298;11.620;2023-05-14T14:18:37;2.95;;;2.17;;
46723;SDS011;32463;48.298;11.620;2023-05-14T14:21:03;3.45;;;2.38;;
46723;SDS011;32463;48.298;11.620;2023-05-14T14:23:30;3.08;;;2.22;;
46723;SDS011;32463;48.298;11.620;2023-05-14T14:25:56;5.43;;;2.35;;
46723;SDS011;32463;48.298;11.620;2023-05-14T14:28:23;2.83;;;2.13;;
46723;SDS011;32463;48.298;11.620;2023-05-14T14:30:50;6.13;;;2.55;;
46723;SDS011;32463;48.298;11.620;2023-05-14T14:33:16;3.17;;;2.33;;